createdAt,value
2022-11-10T00:00:45.036Z,87.94
2022-11-10T00:01:45.048Z,87.94
2022-11-10T00:02:45.020Z,87.94
2022-11-10T00:03:45.035Z,88.04
2022-11-10T00:04:44.975Z,87.94
2022-11-10T00:05:44.963Z,87.94
2022-11-10T00:06:45.016Z,88.04
2022-11-10T00:07:44.979Z,88.14
2022-11-10T00:08:44.923Z,88.14
2022-11-10T00:09:44.914Z,88.14
2022-11-10T00:10:44.919Z,88.04
2022-11-10T00:11:44.882Z,88.14
2022-11-10T00:12:44.884Z,88.14
2022-11-10T00:13:44.872Z,88.14
2022-11-10T00:14:44.857Z,88.14
2022-11-10T00:15:44.833Z,87.94
2022-11-10T00:16:44.836Z,87.94
2022-11-10T00:17:44.816Z,87.84
2022-11-10T00:18:44.811Z,87.84
2022-11-10T00:19:44.774Z,87.94
2022-11-10T00:20:44.773Z,87.84
2022-11-10T00:21:44.767Z,87.84
2022-11-10T00:22:44.743Z,87.73
2022-11-10T00:23:44.743Z,87.94
2022-11-10T00:24:44.745Z,87.84
2022-11-10T00:25:44.726Z,87.73
2022-11-10T00:26:44.705Z,87.73
2022-11-10T00:27:44.685Z,87.73
2022-11-10T00:28:44.695Z,87.73
2022-11-10T00:29:44.684Z,87.84
2022-11-10T00:30:46.890Z,87.73
2022-11-10T00:31:44.621Z,87.73
2022-11-10T00:32:44.612Z,87.84
2022-11-10T00:33:44.609Z,87.84
2022-11-10T00:34:44.599Z,88.04
2022-11-10T00:35:44.569Z,88.04
2022-11-10T00:36:44.562Z,87.94
2022-11-10T00:37:44.542Z,87.84
2022-11-10T00:38:44.543Z,87.94
2022-11-10T00:39:44.532Z,87.94
2022-11-10T00:40:44.521Z,88.04
2022-11-10T00:41:44.493Z,88.14
2022-11-10T00:42:44.498Z,88.14
2022-11-10T00:43:44.461Z,88.24
2022-11-10T00:44:44.472Z,88.24
2022-11-10T00:45:44.452Z,88.35
2022-11-10T00:46:44.463Z,88.35
2022-11-10T00:47:44.423Z,88.45
2022-11-10T00:48:44.418Z,88.45
2022-11-10T00:49:44.406Z,88.45
2022-11-10T00:50:44.393Z,88.45
2022-11-10T00:51:44.391Z,88.55
2022-11-10T00:52:44.349Z,88.65
2022-11-10T00:53:44.339Z,88.70
2022-11-10T00:54:44.341Z,88.70
2022-11-10T00:55:44.322Z,88.59
2022-11-10T00:56:44.311Z,88.49
2022-11-10T00:57:44.313Z,88.70
2022-11-10T00:58:44.284Z,88.79
2022-11-10T00:59:44.257Z,88.90
2022-11-10T01:00:44.360Z,88.79
2022-11-10T01:01:44.236Z,88.79
2022-11-10T01:02:44.236Z,88.90
2022-11-10T01:03:44.222Z,88.79
2022-11-10T01:04:44.211Z,88.90
2022-11-10T01:05:44.178Z,88.90
2022-11-10T01:06:44.222Z,89.00
2022-11-10T01:07:44.170Z,89.11
2022-11-10T01:08:44.180Z,89.00
2022-11-10T01:09:44.128Z,88.90
2022-11-10T01:10:44.130Z,88.90
2022-11-10T01:11:44.107Z,88.90
2022-11-10T01:12:44.094Z,89.00
2022-11-10T01:13:44.090Z,88.90
2022-11-10T01:14:44.088Z,89.00
2022-11-10T01:15:44.072Z,89.00
2022-11-10T01:16:44.039Z,89.11
2022-11-10T01:17:44.025Z,89.11
2022-11-10T01:18:44.006Z,89.00
2022-11-10T01:19:43.996Z,89.00
2022-11-10T01:20:44.003Z,89.00
2022-11-10T01:21:43.991Z,89.00
2022-11-10T01:22:43.995Z,89.11
2022-11-10T01:23:43.951Z,89.11
2022-11-10T01:24:43.926Z,89.00
2022-11-10T01:25:43.949Z,89.00
2022-11-10T01:26:43.913Z,89.11
2022-11-10T01:27:43.897Z,89.20
2022-11-10T01:28:43.875Z,89.31
2022-11-10T01:29:43.872Z,89.51
2022-11-10T01:30:43.861Z,89.41
2022-11-10T01:31:43.924Z,89.31
2022-11-10T01:32:43.824Z,89.31
2022-11-10T01:33:43.838Z,89.31
2022-11-10T01:34:43.815Z,89.31
2022-11-10T01:35:43.809Z,89.41
2022-11-10T01:36:43.822Z,89.56
2022-11-10T01:37:43.799Z,89.65
2022-11-10T01:38:43.766Z,89.76
2022-11-10T01:39:43.758Z,89.76
2022-11-10T01:40:43.837Z,89.97
2022-11-10T01:41:43.727Z,90.06
2022-11-10T01:42:43.717Z,90.06
2022-11-10T01:43:43.696Z,89.97
2022-11-10T01:44:43.670Z,89.97
2022-11-10T01:45:43.662Z,89.86
2022-11-10T01:46:43.652Z,89.86
2022-11-10T01:47:43.640Z,89.86
2022-11-10T01:48:43.632Z,89.86
2022-11-10T01:49:50.703Z,89.76
2022-11-10T01:50:46.275Z,89.86
2022-11-10T01:51:46.297Z,89.86
2022-11-10T01:52:43.564Z,89.97
2022-11-10T01:53:43.598Z,89.97
2022-11-10T01:54:43.553Z,89.97
2022-11-10T01:55:43.548Z,90.06
2022-11-10T01:56:43.527Z,90.06
2022-11-10T01:57:43.514Z,90.17
2022-11-10T01:58:43.518Z,90.27
2022-11-10T01:59:43.497Z,90.27
2022-11-10T02:00:43.520Z,90.27
2022-11-10T02:01:43.467Z,90.27
2022-11-10T02:02:43.456Z,90.27
2022-11-10T02:03:43.423Z,90.27
2022-11-10T02:04:43.448Z,90.27
2022-11-10T02:05:43.402Z,90.37
2022-11-10T02:06:43.418Z,90.37
2022-11-10T02:07:43.397Z,90.37
2022-11-10T02:08:43.375Z,90.27
2022-11-10T02:09:43.364Z,90.27
2022-11-10T02:10:43.372Z,90.37
2022-11-10T02:11:43.355Z,90.47
2022-11-10T02:12:43.311Z,90.47
2022-11-10T02:13:43.291Z,90.37
2022-11-10T02:14:43.289Z,90.47
2022-11-10T02:15:43.295Z,90.47
2022-11-10T02:16:43.268Z,90.47
2022-11-10T02:17:43.254Z,90.58
2022-11-10T02:18:43.246Z,90.58
2022-11-10T02:19:43.218Z,90.58
2022-11-10T02:20:43.213Z,90.58
2022-11-10T02:21:43.211Z,90.68
2022-11-10T02:22:43.183Z,90.68
2022-11-10T02:23:43.204Z,90.68
2022-11-10T02:24:43.171Z,90.72
2022-11-10T02:25:43.153Z,90.82
2022-11-10T02:26:43.132Z,90.82
2022-11-10T02:27:43.143Z,90.82
2022-11-10T02:28:43.110Z,90.92
2022-11-10T02:29:43.100Z,90.92
2022-11-10T02:30:43.083Z,91.03
2022-11-10T02:31:43.080Z,91.03
2022-11-10T02:32:43.048Z,91.03
2022-11-10T02:33:43.069Z,91.13
2022-11-10T02:34:43.027Z,91.23
2022-11-10T02:35:43.016Z,91.33
2022-11-10T02:36:43.013Z,91.33
2022-11-10T02:37:43.001Z,91.44
2022-11-10T02:38:42.967Z,91.44
2022-11-10T02:39:42.980Z,91.54
2022-11-10T02:40:42.960Z,91.54
2022-11-10T02:41:42.949Z,91.64
2022-11-10T02:42:42.940Z,91.64
2022-11-10T02:43:43.037Z,91.74
2022-11-10T02:44:42.893Z,91.74
2022-11-10T02:45:42.898Z,91.74
2022-11-10T02:46:42.867Z,91.85
2022-11-10T02:47:42.869Z,91.85
2022-11-10T02:48:42.836Z,91.85
2022-11-10T02:49:42.852Z,91.74
2022-11-10T02:50:42.890Z,91.74
2022-11-10T02:51:42.819Z,91.74
2022-11-10T02:52:42.809Z,91.74
2022-11-10T02:53:42.786Z,91.64
2022-11-10T02:54:42.766Z,91.54
2022-11-10T02:55:42.757Z,91.44
2022-11-10T02:56:42.779Z,91.44
2022-11-10T02:57:42.725Z,91.33
2022-11-10T02:58:42.728Z,91.44
2022-11-10T02:59:42.724Z,91.44
2022-11-10T03:00:42.707Z,91.33
2022-11-10T03:01:42.791Z,91.44
2022-11-10T03:02:42.672Z,91.44
2022-11-10T03:03:42.643Z,91.54
2022-11-10T03:04:42.656Z,91.44
2022-11-10T03:05:42.652Z,91.44
2022-11-10T03:06:42.646Z,91.54
2022-11-10T03:07:42.622Z,91.44
2022-11-10T03:08:42.595Z,91.44
2022-11-10T03:09:42.586Z,91.54
2022-11-10T03:10:42.582Z,91.44
2022-11-10T03:11:42.576Z,91.54
2022-11-10T03:12:42.557Z,91.64
2022-11-10T03:14:00.381Z,91.74
2022-11-10T03:14:43.517Z,91.85
2022-11-10T03:15:42.501Z,91.74
2022-11-10T03:16:42.482Z,91.74
2022-11-10T03:17:42.490Z,91.85
2022-11-10T03:18:42.474Z,91.74
2022-11-10T03:19:42.461Z,91.85
2022-11-10T03:20:42.430Z,91.85
2022-11-10T03:21:42.431Z,91.74
2022-11-10T03:22:42.412Z,91.74
2022-11-10T03:23:42.413Z,91.74
2022-11-10T03:24:42.399Z,91.74
2022-11-10T03:25:42.385Z,91.74
2022-11-10T03:26:42.361Z,91.64
2022-11-10T03:27:42.352Z,91.74
2022-11-10T03:28:42.334Z,91.64
2022-11-10T03:29:42.320Z,91.74
2022-11-10T03:30:42.324Z,91.64
2022-11-10T03:31:42.303Z,91.74
2022-11-10T03:32:42.292Z,91.64
2022-11-10T03:33:42.274Z,91.74
2022-11-10T03:34:42.259Z,91.85
2022-11-10T03:35:42.256Z,91.85
2022-11-10T03:36:42.251Z,91.85
2022-11-10T03:37:42.233Z,91.85
2022-11-10T03:38:42.200Z,91.95
2022-11-10T03:39:42.199Z,91.95
2022-11-10T03:41:18.198Z,91.95
2022-11-10T03:41:43.190Z,91.95
2022-11-10T03:42:42.165Z,91.95
2022-11-10T03:43:42.152Z,92.05
2022-11-10T03:44:42.142Z,92.05
2022-11-10T03:45:42.132Z,92.05
2022-11-10T03:46:43.579Z,92.15
2022-11-10T03:47:42.132Z,92.15
2022-11-10T03:48:42.088Z,92.25
2022-11-10T03:49:42.068Z,92.36
2022-11-10T03:50:42.048Z,92.36
2022-11-10T03:51:42.053Z,92.50
2022-11-10T03:52:42.052Z,92.50
2022-11-10T03:53:42.050Z,92.36
2022-11-10T03:54:42.019Z,92.40
2022-11-10T03:55:41.988Z,92.50
2022-11-10T03:56:41.977Z,92.50
2022-11-10T03:57:41.981Z,92.50
2022-11-10T03:58:41.945Z,92.50
2022-11-10T03:59:41.954Z,92.60
2022-11-10T04:00:41.924Z,92.50
2022-11-10T04:01:41.954Z,92.50
2022-11-10T04:02:41.899Z,92.60
2022-11-10T04:03:41.884Z,92.50
2022-11-10T04:04:41.888Z,92.50
2022-11-10T04:05:41.856Z,92.50
2022-11-10T04:06:41.899Z,92.60
2022-11-10T04:07:41.850Z,92.60
2022-11-10T04:08:41.869Z,92.71
2022-11-10T04:09:41.828Z,92.81
2022-11-10T04:10:41.828Z,92.75
2022-11-10T04:11:41.799Z,92.85
2022-11-10T04:12:41.766Z,92.85
2022-11-10T04:13:41.767Z,92.85
2022-11-10T04:14:41.764Z,92.85
2022-11-10T04:15:41.738Z,92.96
2022-11-10T04:16:41.724Z,92.96
2022-11-10T04:17:41.739Z,93.06
2022-11-10T04:18:41.684Z,93.16
2022-11-10T04:19:41.706Z,93.26
2022-11-10T04:20:41.674Z,93.30
2022-11-10T04:21:41.651Z,93.26
2022-11-10T04:22:41.644Z,93.41
2022-11-10T04:23:41.644Z,93.30
2022-11-10T04:24:41.603Z,93.30
2022-11-10T04:25:41.602Z,93.51
2022-11-10T04:26:41.607Z,93.51
2022-11-10T04:27:41.595Z,93.51
2022-11-10T04:28:41.563Z,93.62
2022-11-10T04:29:41.577Z,93.71
2022-11-10T04:30:41.545Z,93.82
2022-11-10T04:31:41.524Z,93.82
2022-11-10T04:32:41.546Z,93.92
2022-11-10T04:33:41.517Z,93.92
2022-11-10T04:34:41.482Z,94.12
2022-11-10T04:35:41.484Z,94.23
2022-11-10T04:36:41.463Z,94.23
2022-11-10T04:37:41.453Z,94.23
2022-11-10T04:38:41.468Z,94.23
2022-11-10T04:39:41.447Z,94.12
2022-11-10T04:40:41.405Z,94.12
2022-11-10T04:41:41.399Z,94.12
2022-11-10T04:42:41.396Z,94.08
2022-11-10T04:43:41.385Z,94.12
2022-11-10T04:44:41.369Z,94.08
2022-11-10T04:45:41.341Z,94.08
2022-11-10T04:46:41.345Z,94.08
2022-11-10T04:47:41.320Z,93.98
2022-11-10T04:48:41.302Z,94.08
2022-11-10T04:49:41.342Z,94.08
2022-11-10T04:50:41.280Z,93.98
2022-11-10T04:51:41.311Z,93.98
2022-11-10T04:52:41.267Z,93.88
2022-11-10T04:53:41.253Z,93.88
2022-11-10T04:54:41.227Z,93.77
2022-11-10T04:55:41.245Z,93.88
2022-11-10T04:56:41.222Z,93.77
2022-11-10T04:57:41.190Z,93.67
2022-11-10T04:58:41.179Z,93.67
2022-11-10T04:59:41.178Z,93.67
2022-11-10T05:00:41.215Z,93.77
2022-11-10T05:01:41.150Z,93.82
2022-11-10T05:02:41.147Z,93.82
2022-11-10T05:03:41.141Z,93.92
2022-11-10T05:04:41.111Z,93.92
2022-11-10T05:05:41.141Z,94.02
2022-11-10T05:06:41.163Z,94.02
2022-11-10T05:07:41.077Z,94.12
2022-11-10T05:08:41.045Z,94.23
2022-11-10T05:09:41.045Z,94.12
2022-11-10T05:10:41.019Z,94.23
2022-11-10T05:11:41.040Z,94.23
2022-11-10T05:12:40.996Z,94.33
2022-11-10T05:13:41.000Z,94.33
2022-11-10T05:14:40.981Z,94.33
2022-11-10T05:15:40.982Z,94.33
2022-11-10T05:16:40.960Z,94.33
2022-11-10T05:17:40.957Z,94.33
2022-11-10T05:18:40.938Z,94.33
2022-11-10T05:19:40.958Z,94.33
2022-11-10T05:20:40.918Z,94.33
2022-11-10T05:21:40.875Z,94.23
2022-11-10T05:22:44.140Z,94.33
2022-11-10T05:23:41.910Z,94.33
2022-11-10T05:24:40.858Z,94.33
2022-11-10T05:25:40.833Z,94.33
2022-11-10T05:26:40.815Z,94.33
2022-11-10T05:27:40.806Z,94.33
2022-11-10T05:28:40.827Z,94.43
2022-11-10T05:29:40.783Z,94.43
2022-11-10T05:30:40.764Z,94.43
2022-11-10T05:31:40.766Z,94.43
2022-11-10T05:32:40.745Z,94.43
2022-11-10T05:33:40.727Z,94.54
2022-11-10T05:34:40.736Z,94.54
2022-11-10T05:35:40.717Z,94.54
2022-11-10T05:36:40.705Z,94.54
2022-11-10T05:37:40.690Z,94.64
2022-11-10T05:38:43.743Z,94.54
2022-11-10T05:39:40.696Z,94.54
2022-11-10T05:40:40.647Z,94.43
2022-11-10T05:41:40.632Z,94.33
2022-11-10T05:42:40.602Z,94.33
2022-11-10T05:43:40.592Z,94.33
2022-11-10T05:44:40.584Z,94.33
2022-11-10T05:45:40.607Z,94.23
2022-11-10T05:46:40.561Z,94.23
2022-11-10T05:47:40.565Z,94.23
2022-11-10T05:48:40.543Z,94.23
2022-11-10T05:49:40.547Z,94.33
2022-11-10T05:50:40.510Z,94.33
2022-11-10T05:51:40.526Z,94.48
2022-11-10T05:52:40.486Z,94.58
2022-11-10T05:53:40.469Z,94.58
2022-11-10T05:54:40.470Z,94.68
2022-11-10T05:55:40.459Z,94.78
2022-11-10T05:56:40.440Z,94.74
2022-11-10T05:57:40.430Z,94.89
2022-11-10T05:58:40.432Z,94.99
2022-11-10T05:59:40.674Z,94.95
2022-11-10T06:00:40.380Z,94.99
2022-11-10T06:01:40.405Z,94.89
2022-11-10T06:02:40.389Z,94.89
2022-11-10T06:03:40.388Z,94.89
2022-11-10T06:04:40.342Z,94.78
2022-11-10T06:05:40.320Z,94.89
2022-11-10T06:06:40.369Z,94.89
2022-11-10T06:07:40.293Z,94.89
2022-11-10T06:08:40.414Z,94.89
2022-11-10T06:09:40.269Z,94.89
2022-11-10T06:10:40.283Z,94.89
2022-11-10T06:11:40.235Z,94.89
2022-11-10T06:12:40.344Z,94.78
2022-11-10T06:13:40.250Z,94.89
2022-11-10T06:14:40.214Z,94.89
2022-11-10T06:15:40.224Z,94.89
2022-11-10T06:16:40.196Z,94.89
2022-11-10T06:17:40.194Z,94.93
2022-11-10T06:18:40.161Z,94.93
2022-11-10T06:19:40.170Z,94.93
2022-11-10T06:20:40.130Z,95.03
2022-11-10T06:21:40.103Z,95.14
2022-11-10T06:22:40.109Z,95.14
2022-11-10T06:23:40.087Z,95.24
2022-11-10T06:24:40.121Z,95.34
2022-11-10T06:25:40.069Z,95.34
2022-11-10T06:26:40.057Z,95.44
2022-11-10T06:27:40.038Z,95.50
2022-11-10T06:28:40.028Z,95.54
2022-11-10T06:29:40.016Z,95.61
2022-11-10T06:30:40.027Z,95.61
2022-11-10T06:31:39.989Z,95.61
2022-11-10T06:32:39.978Z,95.61
2022-11-10T06:33:39.968Z,95.61
2022-11-10T06:34:39.941Z,95.70
2022-11-10T06:35:39.942Z,95.70
2022-11-10T06:36:39.934Z,95.70
2022-11-10T06:37:39.902Z,95.70
2022-11-10T06:38:39.890Z,95.70
2022-11-10T06:39:39.884Z,95.70
2022-11-10T06:40:39.890Z,95.70
2022-11-10T06:41:39.874Z,95.70
2022-11-10T06:42:39.866Z,95.70
2022-11-10T06:43:39.841Z,95.70
2022-11-10T06:44:39.826Z,95.61
2022-11-10T06:45:39.808Z,95.61
2022-11-10T06:46:42.395Z,95.50
2022-11-10T06:47:39.803Z,95.40
2022-11-10T06:48:39.777Z,95.50
2022-11-10T06:49:39.776Z,95.50
2022-11-10T06:50:39.741Z,95.50
2022-11-10T06:51:39.731Z,95.50
2022-11-10T06:52:39.727Z,95.50
2022-11-10T06:53:39.701Z,95.50
2022-11-10T06:54:39.694Z,95.50
2022-11-10T06:55:39.675Z,95.50
2022-11-10T06:56:39.669Z,95.50
2022-11-10T06:57:39.654Z,95.40
2022-11-10T06:58:39.641Z,95.40
2022-11-10T06:59:39.634Z,95.34
2022-11-10T07:00:39.618Z,95.34
2022-11-10T07:01:39.610Z,95.34
2022-11-10T07:02:39.588Z,95.34
2022-11-10T07:03:58.527Z,95.44
2022-11-10T07:04:40.559Z,95.44
2022-11-10T07:05:39.552Z,95.34
2022-11-10T07:06:39.576Z,95.34
2022-11-10T07:07:39.532Z,95.54
2022-11-10T07:08:39.541Z,95.54
2022-11-10T07:09:39.531Z,95.54
2022-11-10T07:10:39.492Z,95.54
2022-11-10T07:11:39.480Z,95.54
2022-11-10T07:12:39.489Z,95.54
2022-11-10T07:13:39.439Z,95.54
2022-11-10T07:14:39.443Z,95.54
2022-11-10T07:15:39.426Z,95.65
2022-11-10T07:16:39.462Z,95.65
2022-11-10T07:17:39.391Z,95.75
2022-11-10T07:18:39.381Z,95.75
2022-11-10T07:19:39.368Z,95.65
2022-11-10T07:20:39.359Z,95.75
2022-11-10T07:21:39.352Z,95.75
2022-11-10T07:22:39.331Z,95.75
2022-11-10T07:23:39.321Z,95.65
2022-11-10T07:24:39.309Z,95.65
2022-11-10T07:25:39.278Z,95.65
2022-11-10T07:26:39.317Z,95.65
2022-11-10T07:27:39.256Z,95.54
2022-11-10T07:28:39.235Z,95.65
2022-11-10T07:29:39.239Z,95.65
2022-11-10T07:30:39.239Z,95.75
2022-11-10T07:31:39.221Z,95.75
2022-11-10T07:32:39.240Z,95.86
2022-11-10T07:33:39.176Z,95.70
2022-11-10T07:34:39.212Z,95.70
2022-11-10T07:35:39.188Z,95.70
2022-11-10T07:36:39.157Z,95.61
2022-11-10T07:37:39.142Z,95.61
2022-11-10T07:38:39.118Z,95.61
2022-11-10T07:39:39.105Z,95.70
2022-11-10T07:40:39.109Z,95.70
2022-11-10T07:41:39.074Z,95.61
2022-11-10T07:42:39.087Z,95.61
2022-11-10T07:43:39.090Z,95.61
2022-11-10T07:44:39.034Z,95.61
2022-11-10T07:45:39.037Z,95.61
2022-11-10T07:46:39.026Z,95.61
2022-11-10T07:47:38.994Z,95.61
2022-11-10T07:48:38.990Z,95.61
2022-11-10T07:49:39.017Z,95.61
2022-11-10T07:50:38.974Z,95.46
2022-11-10T07:51:38.942Z,95.56
2022-11-10T07:52:38.936Z,95.46
2022-11-10T07:53:38.924Z,95.46
2022-11-10T07:54:38.930Z,95.46
2022-11-10T07:55:38.916Z,95.46
2022-11-10T07:56:38.874Z,95.46
2022-11-10T07:57:38.900Z,95.36
2022-11-10T07:58:38.886Z,95.36
2022-11-10T07:59:38.840Z,95.36
2022-11-10T08:01:46.279Z,95.05
2022-11-10T08:02:38.814Z,95.05
2022-11-10T08:03:38.803Z,95.05
2022-11-10T08:04:38.853Z,94.95
2022-11-10T08:05:38.775Z,94.80
2022-11-10T08:06:38.897Z,94.80
2022-11-10T08:07:38.873Z,94.70
2022-11-10T08:08:38.746Z,94.59
2022-11-10T08:09:38.731Z,94.49
2022-11-10T08:10:38.699Z,94.49
2022-11-10T08:11:38.700Z,94.49
2022-11-10T08:12:38.679Z,94.39
2022-11-10T08:13:38.689Z,94.39
2022-11-10T08:14:38.659Z,94.39
2022-11-10T08:15:38.690Z,94.29
2022-11-10T08:16:38.630Z,94.29
2022-11-10T08:17:38.640Z,94.29
2022-11-10T08:18:38.614Z,94.24
2022-11-10T08:19:38.588Z,94.14
2022-11-10T08:20:38.590Z,94.04
2022-11-10T08:21:38.581Z,93.93
2022-11-10T08:22:38.588Z,93.84
2022-11-10T08:23:38.546Z,93.84
2022-11-10T08:24:38.522Z,93.84
2022-11-10T08:25:38.504Z,93.93
2022-11-10T08:26:38.509Z,93.93
2022-11-10T08:27:38.500Z,93.84
2022-11-10T08:28:38.500Z,93.73
2022-11-10T08:29:38.457Z,93.63
2022-11-10T08:30:38.437Z,93.52
2022-11-10T08:31:38.449Z,93.43
2022-11-10T08:32:38.427Z,93.38
2022-11-10T08:33:38.411Z,93.28
2022-11-10T08:34:38.421Z,93.28
2022-11-10T08:35:38.404Z,93.28
2022-11-10T08:36:38.372Z,93.28
2022-11-10T08:37:38.377Z,93.28
2022-11-10T08:38:38.357Z,93.18
2022-11-10T08:39:39.482Z,92.97
2022-11-10T08:40:38.355Z,92.97
2022-11-10T08:41:38.303Z,92.97
2022-11-10T08:42:38.306Z,92.87
2022-11-10T08:43:38.313Z,92.83
2022-11-10T08:44:38.297Z,92.83
2022-11-10T08:45:38.250Z,92.62
2022-11-10T08:46:38.245Z,92.52
2022-11-10T08:47:38.252Z,92.21
2022-11-10T08:48:38.242Z,92.01
2022-11-10T08:49:38.456Z,91.80
2022-11-10T08:50:38.202Z,91.56
2022-11-10T08:51:39.344Z,91.56
2022-11-10T08:52:38.174Z,91.56
2022-11-10T08:53:38.145Z,91.56
2022-11-10T08:54:38.144Z,91.46
2022-11-10T08:55:38.134Z,91.25
2022-11-10T08:56:38.123Z,91.35
2022-11-10T08:57:38.108Z,91.35
2022-11-10T08:58:47.317Z,91.31
2022-11-10T08:59:39.079Z,91.41
2022-11-10T09:00:38.053Z,91.31
2022-11-10T09:01:38.060Z,91.11
2022-11-10T09:02:38.066Z,91.11
2022-11-10T09:03:38.021Z,90.90
2022-11-10T09:04:38.105Z,91.00
2022-11-10T09:05:38.009Z,91.11
2022-11-10T09:06:38.036Z,90.90
2022-11-10T09:07:37.982Z,90.80
2022-11-10T09:08:37.971Z,90.66
2022-11-10T09:09:37.938Z,90.45
2022-11-10T09:10:37.946Z,90.35
2022-11-10T09:11:37.937Z,90.25
2022-11-10T09:12:37.910Z,90.04
2022-11-10T09:13:37.919Z,90.04
2022-11-10T09:14:37.871Z,89.94
2022-11-10T09:15:37.874Z,89.94
2022-11-10T09:16:37.867Z,89.73
2022-11-10T09:17:37.853Z,89.59
2022-11-10T09:18:37.825Z,89.59
2022-11-10T09:19:37.882Z,89.69
2022-11-10T09:20:37.837Z,89.79
2022-11-10T09:21:37.793Z,89.79
2022-11-10T09:22:37.820Z,89.49
2022-11-10T09:23:37.787Z,89.69
2022-11-10T09:24:37.761Z,89.79
2022-11-10T09:25:37.749Z,89.79
2022-11-10T09:26:37.751Z,89.59
2022-11-10T09:27:37.726Z,89.49
2022-11-10T09:28:37.712Z,89.55
2022-11-10T09:29:37.688Z,89.55
2022-11-10T09:30:37.681Z,89.45
2022-11-10T09:31:37.707Z,89.34
2022-11-10T09:32:37.655Z,89.25
2022-11-10T09:33:37.650Z,89.25
2022-11-10T09:34:37.629Z,89.14
2022-11-10T09:35:37.607Z,89.04
2022-11-10T09:36:37.609Z,89.04
2022-11-10T09:37:37.597Z,88.93
2022-11-10T09:38:37.640Z,88.63
2022-11-10T09:39:37.557Z,88.69
2022-11-10T09:40:37.536Z,88.79
2022-11-10T09:41:37.550Z,88.69
2022-11-10T09:42:37.555Z,88.69
2022-11-10T09:43:37.527Z,88.39
2022-11-10T09:44:37.495Z,87.98
2022-11-10T09:45:39.394Z,87.88
2022-11-10T09:46:37.478Z,87.77
2022-11-10T09:48:38.469Z,87.94
2022-11-10T09:49:37.438Z,87.84
2022-11-10T09:50:37.417Z,87.63
2022-11-10T09:51:37.418Z,87.12
2022-11-10T09:52:37.397Z,87.02
2022-11-10T09:53:37.395Z,87.08
2022-11-10T09:54:37.428Z,86.68
2022-11-10T09:55:37.368Z,86.57
2022-11-10T09:56:37.344Z,86.77
2022-11-10T09:57:37.339Z,86.77
2022-11-10T09:58:37.304Z,86.68
2022-11-10T09:59:37.327Z,86.98
2022-11-10T10:00:37.284Z,86.68
2022-11-10T10:01:37.315Z,86.47
2022-11-10T10:02:37.267Z,86.37
2022-11-10T10:03:37.257Z,86.43
2022-11-10T10:04:37.225Z,86.43
2022-11-10T10:05:37.252Z,86.43
2022-11-10T10:06:56.929Z,86.63
2022-11-10T10:07:38.252Z,86.74
2022-11-10T10:08:37.187Z,86.83
2022-11-10T10:09:37.177Z,86.53
2022-11-10T10:10:37.191Z,86.13
2022-11-10T10:11:37.164Z,86.43
2022-11-10T10:12:37.130Z,86.13
2022-11-10T10:13:37.135Z,85.82
2022-11-10T10:14:37.115Z,85.72
2022-11-10T10:15:37.091Z,86.13
2022-11-10T10:16:37.133Z,85.92
2022-11-10T10:17:41.004Z,85.72
2022-11-10T10:18:37.094Z,85.82
2022-11-10T10:19:37.105Z,85.78
2022-11-10T10:20:37.065Z,85.47
2022-11-10T10:21:37.049Z,84.86
2022-11-10T10:22:37.014Z,84.86
2022-11-10T10:24:37.971Z,84.66
2022-11-10T10:25:36.963Z,84.66
2022-11-10T10:26:36.948Z,84.97
2022-11-10T10:27:36.964Z,84.97
2022-11-10T10:28:36.923Z,85.06
2022-11-10T10:29:37.611Z,85.06
2022-11-10T10:30:36.910Z,84.76
2022-11-10T10:31:36.904Z,84.76
2022-11-10T10:32:36.892Z,84.97
2022-11-10T10:33:36.872Z,84.72
2022-11-10T10:34:36.854Z,85.03
2022-11-10T10:35:41.658Z,84.82
2022-11-10T10:36:37.923Z,83.91
2022-11-10T10:37:36.852Z,83.70
2022-11-10T10:38:36.837Z,83.91
2022-11-10T10:39:36.789Z,83.50
2022-11-10T10:40:36.791Z,83.70
2022-11-10T10:41:36.794Z,83.40
2022-11-10T10:42:36.762Z,83.50
2022-11-10T10:43:36.773Z,83.91
2022-11-10T10:44:36.718Z,84.01
2022-11-10T10:45:36.803Z,84.01
2022-11-10T10:46:36.713Z,84.11
2022-11-10T10:47:36.698Z,84.31
2022-11-10T10:48:36.687Z,84.42
2022-11-10T10:49:36.689Z,84.42
2022-11-10T10:50:36.663Z,84.62
2022-11-10T10:51:36.627Z,84.52
2022-11-10T10:52:36.622Z,84.42
2022-11-10T10:53:36.616Z,84.31
2022-11-10T10:54:36.599Z,84.21
2022-11-10T10:55:36.590Z,83.40
2022-11-10T10:56:36.579Z,83.29
2022-11-10T10:57:36.561Z,83.81
2022-11-10T10:58:36.597Z,84.11
2022-11-10T10:59:36.542Z,83.70
2022-11-10T11:00:36.506Z,83.70
2022-11-10T11:01:36.842Z,83.70
2022-11-10T11:02:36.577Z,83.81
2022-11-10T11:03:36.924Z,83.56
2022-11-10T11:04:36.681Z,83.76
2022-11-10T11:05:36.642Z,83.36
2022-11-10T11:06:36.493Z,83.06
2022-11-10T11:07:36.457Z,82.85
2022-11-10T11:08:36.701Z,82.65
2022-11-10T11:09:36.557Z,82.34
2022-11-10T11:10:36.556Z,82.14
2022-11-10T11:11:36.374Z,81.93
2022-11-10T11:12:36.372Z,82.24
2022-11-10T11:13:36.348Z,82.04
2022-11-10T11:14:38.653Z,81.53
2022-11-10T11:15:37.327Z,81.73
2022-11-10T11:16:36.294Z,81.63
2022-11-10T11:17:36.359Z,81.63
2022-11-10T11:18:36.273Z,81.53
2022-11-10T11:19:36.307Z,82.04
2022-11-10T11:20:36.263Z,81.93
2022-11-10T11:21:36.265Z,81.43
2022-11-10T11:22:36.228Z,81.59
2022-11-10T11:23:36.233Z,81.49
2022-11-10T11:24:36.216Z,81.39
2022-11-10T11:25:36.219Z,81.19
2022-11-10T11:26:36.164Z,81.09
2022-11-10T11:27:36.183Z,80.58
2022-11-10T11:28:36.156Z,80.88
2022-11-10T11:29:36.153Z,81.19
2022-11-10T11:30:36.132Z,80.78
2022-11-10T11:31:41.679Z,80.88
2022-11-10T11:32:37.101Z,80.78
2022-11-10T11:33:36.093Z,80.78
2022-11-10T11:34:36.082Z,80.98
2022-11-10T11:35:36.074Z,79.83
2022-11-10T11:36:36.052Z,79.83
2022-11-10T11:37:36.043Z,79.93
2022-11-10T11:38:36.042Z,78.51
2022-11-10T11:39:36.003Z,78.71
2022-11-10T11:40:36.004Z,79.02
2022-11-10T11:41:35.993Z,78.10
2022-11-10T11:42:35.971Z,77.59
2022-11-10T11:43:35.962Z,76.68
2022-11-10T11:44:35.965Z,76.07
2022-11-10T11:45:35.929Z,75.93
2022-11-10T11:46:35.920Z,74.95
2022-11-10T11:47:35.909Z,76.07
2022-11-10T11:48:35.927Z,76.54
2022-11-10T11:49:35.891Z,76.78
2022-11-10T11:50:35.867Z,76.44
2022-11-10T11:51:35.849Z,76.34
2022-11-10T11:52:35.851Z,75.83
2022-11-10T11:53:35.828Z,76.03
2022-11-10T11:54:36.549Z,75.52
2022-11-10T11:55:35.810Z,75.93
2022-11-10T11:56:35.778Z,75.02
2022-11-10T11:57:39.865Z,75.12
2022-11-10T11:58:35.760Z,75.02
2022-11-10T11:59:35.748Z,74.92
2022-11-10T12:00:35.729Z,74.62
2022-11-10T12:01:35.730Z,74.31
2022-11-10T12:02:35.795Z,74.10
2022-11-10T12:03:35.706Z,74.62
2022-11-10T12:04:35.689Z,75.02
2022-11-10T12:05:35.682Z,75.02
2022-11-10T12:06:35.709Z,74.41
2022-11-10T12:07:35.653Z,74.21
2022-11-10T12:08:35.666Z,74.10
2022-11-10T12:09:35.628Z,74.62
2022-11-10T12:10:39.232Z,74.41
2022-11-10T12:11:36.646Z,74.71
2022-11-10T12:12:36.492Z,74.82
2022-11-10T12:13:35.568Z,74.92
2022-11-10T12:14:35.578Z,74.71
2022-11-10T12:15:35.555Z,74.21
2022-11-10T12:16:35.517Z,74.82
2022-11-10T12:17:35.528Z,75.43
2022-11-10T12:18:35.521Z,75.32
2022-11-10T12:19:35.487Z,74.71
2022-11-10T12:20:35.487Z,75.43
2022-11-10T12:21:35.505Z,75.22
2022-11-10T12:22:35.467Z,75.63
2022-11-10T12:23:35.458Z,75.83
2022-11-10T12:24:35.450Z,75.63
2022-11-10T12:25:35.413Z,75.73
2022-11-10T12:26:35.449Z,75.73
2022-11-10T12:27:35.426Z,75.32
2022-11-10T12:28:35.409Z,75.43
2022-11-10T12:29:35.383Z,75.93
2022-11-10T12:30:35.342Z,74.51
2022-11-10T12:31:35.353Z,74.82
2022-11-10T12:32:35.313Z,75.43
2022-11-10T12:33:35.304Z,74.48
2022-11-10T12:34:35.305Z,74.38
2022-11-10T12:35:35.296Z,74.07
2022-11-10T12:36:35.282Z,74.48
2022-11-10T12:37:35.285Z,73.97
2022-11-10T12:38:35.256Z,74.68
2022-11-10T12:39:35.245Z,74.17
2022-11-10T12:40:39.157Z,73.97
2022-11-10T12:41:36.215Z,74.17
2022-11-10T12:42:35.223Z,74.88
2022-11-10T12:43:35.186Z,74.98
2022-11-10T12:44:35.167Z,75.39
2022-11-10T12:45:35.150Z,75.19
2022-11-10T12:46:35.131Z,75.09
2022-11-10T12:47:35.141Z,74.78
2022-11-10T12:48:35.130Z,74.68
2022-11-10T12:49:35.104Z,74.27
2022-11-10T12:50:35.095Z,74.58
2022-11-10T12:51:35.096Z,73.87
2022-11-10T12:52:35.103Z,73.66
2022-11-10T12:53:35.072Z,73.77
2022-11-10T12:54:35.050Z,74.07
2022-11-10T12:55:35.022Z,74.07